Malibu, CA

11:38 AM PDT on April 19, 2015 (GMT -0700)
Van Nuys | | Change Station
CLOSE
Current Station
Airport
Location: Van Nuys,
Elevation: 801 ft
Nearby Weather Stations

Elev 801 ft 34.22 °N, 118.49 °W | Updated 47 minutes ago

Partly Cloudy
Partly Cloudy
72 °F
Feels Like 72 °F
N
0
Wind Variable Wind from North

Today
High -- | Low -- °F
--% Chance of Precip.
Yesterday
High -- | Low -- °F
Precip. -- in
6:19 AM 7:29 PM
New Moon, 1% visible
Pressure 29.93 in
Visibility 6.0 miles
Clouds Clear
Dew Point 45 °F
Humidity 38%
Rainfall 0.00 in
Snow Depth Not available.
UV 8 out of 12
Pollen 7.20 out of 12
Air Quality Not available.
Flu Activity Sporadic
METAR KVNY 191751Z 00000KT 6SM HZ CLR 22/07 A2995 RMK AO2 SLP133 T02220072 10222 20117 58009

More Conditions Fewer Conditions

Pressure 29.93 in
Visibility 6.0 miles
Clouds Clear
Dew Point 45 °F
Humidity 38%
Rainfall 0.00 in
Snow Depth Not available.
UV 8 out of 12
Pollen 7.20 out of 12
Air Quality Not available.
Flu Activity Sporadic
METAR KVNY 191751Z 00000KT 6SM HZ CLR 22/07 A2995 RMK AO2 SLP133 T02220072 10222 20117 58009

More Conditions Fewer Conditions

10-Day Weather Forecast

Almanac

Astronomy

Apr. 19, 2015 Rise Set
Actual Time
Civil Twilight
Nautical Twilight
Astronomical Twilight
Moon
Length of Visible Light
Length of Day
Tomorrow will be .
, % of the Moon is Illuminated

Today's Extremes

State Highs State Lows

Community

WunderPhotos

Upload Photos

1,814,900 photos uploaded!

WunderBlogs® & News

Nearby

Air Quality

  Air Quality AQ Index Pollutant
Not available.

Snow Depth

Station Depth Elevation

Earthquake Activity

City Distance Mag. Time & Date
Minimum magnitude displayed is 2.5.

Coastal Water Temperatures

Place Temperature

Stations

Nearby Weather Stations

Station Location Temp. Windchill Dew Point Humidity Wind Precip. Elev Updated Type